createdAt,value
2016-06-04T00:00:27.995Z,0
2016-06-04T00:01:27.841Z,0
2016-06-04T00:02:27.985Z,0
2016-06-04T00:03:27.955Z,0
2016-06-04T00:04:27.959Z,0
2016-06-04T00:05:27.930Z,0
2016-06-04T00:06:27.917Z,0
2016-06-04T00:07:27.905Z,0
2016-06-04T00:08:27.876Z,0
2016-06-04T00:09:27.847Z,0
2016-06-04T00:10:27.678Z,0
2016-06-04T00:11:29.305Z,0
2016-06-04T00:12:27.667Z,0
2016-06-04T00:13:27.796Z,0
2016-06-04T00:14:27.767Z,0
2016-06-04T00:15:27.770Z,0
2016-06-04T00:16:27.756Z,0
2016-06-04T00:17:27.743Z,0
2016-06-04T00:18:27.731Z,0
2016-06-04T00:19:27.701Z,0
2016-06-04T00:20:27.690Z,0
2016-06-04T00:21:27.676Z,0
2016-06-04T00:22:27.664Z,0
2016-06-04T00:23:27.712Z,0
2016-06-04T00:24:27.606Z,0
2016-06-04T00:25:27.609Z,0
2016-06-04T00:26:28.128Z,0
2016-06-04T00:27:27.567Z,0
2016-06-04T00:28:27.554Z,0
2016-06-04T00:29:27.542Z,0
2016-06-04T00:30:27.513Z,0
2016-06-04T00:31:27.500Z,0
2016-06-04T00:32:27.486Z,0
2016-06-04T00:33:27.489Z,0
2016-06-04T00:34:27.461Z,0
2016-06-04T00:35:27.449Z,0
2016-06-04T00:36:27.435Z,0
2016-06-04T00:37:27.422Z,0
2016-06-04T00:38:27.410Z,0
2016-06-04T00:39:27.366Z,0
2016-06-04T00:40:27.352Z,0
2016-06-04T00:41:28.121Z,0
2016-06-04T00:42:27.327Z,0
2016-06-04T00:43:27.313Z,0
2016-06-04T00:44:27.301Z,0
2016-06-04T00:45:27.271Z,0
2016-06-04T00:46:27.104Z,0
2016-06-04T00:47:27.231Z,0
2016-06-04T00:48:27.234Z,0
2016-06-04T00:49:27.079Z,0
2016-06-04T00:50:27.207Z,0
2016-06-04T00:51:27.179Z,0
2016-06-04T00:52:27.025Z,0
2016-06-04T00:53:27.169Z,0
2016-06-04T00:54:27.171Z,0
2016-06-04T00:55:27.127Z,0
2016-06-04T00:56:27.770Z,0
2016-06-04T00:57:27.070Z,0
2016-06-04T00:58:27.057Z,0
2016-06-04T00:59:27.056Z,0
2016-06-04T01:00:27.077Z,0
2016-06-04T01:01:27.112Z,0
2016-06-04T01:02:27.118Z,0
2016-06-04T01:03:27.138Z,0
2016-06-04T01:04:27.151Z,0
2016-06-04T01:05:27.150Z,0
2016-06-04T01:06:26.649Z,0
2016-06-04T01:07:27.148Z,0
2016-06-04T01:08:27.132Z,0
2016-06-04T01:09:27.111Z,0
2016-06-04T01:10:27.103Z,0
2016-06-04T01:11:27.141Z,0
2016-06-04T01:12:27.085Z,0
2016-06-04T01:13:27.061Z,0
2016-06-04T01:14:27.114Z,0
2016-06-04T01:15:27.056Z,0
2016-06-04T01:16:27.013Z,0
2016-06-04T01:17:27.001Z,0
2016-06-04T01:18:26.990Z,0
2016-06-04T01:19:26.978Z,0
2016-06-04T01:20:26.965Z,0
2016-06-04T01:21:26.954Z,0
2016-06-04T01:22:26.941Z,0
2016-06-04T01:23:26.928Z,0
2016-06-04T01:24:26.931Z,0
2016-06-04T01:25:26.950Z,0
2016-06-04T01:26:26.609Z,0
2016-06-04T01:27:26.831Z,0
2016-06-04T01:28:26.834Z,0
2016-06-04T01:29:26.806Z,0
2016-06-04T01:30:26.809Z,0
2016-06-04T01:31:26.796Z,0
2016-06-04T01:32:26.798Z,0
2016-06-04T01:33:26.754Z,0
2016-06-04T01:34:26.756Z,0
2016-06-04T01:35:26.713Z,0
2016-06-04T01:36:26.700Z,0
2016-06-04T01:37:26.687Z,0
2016-06-04T01:38:26.659Z,0
2016-06-04T01:39:26.661Z,0
2016-06-04T01:40:26.633Z,0
2016-06-04T01:41:26.886Z,0
2016-06-04T01:42:26.606Z,0
2016-06-04T01:43:26.594Z,0
2016-06-04T01:44:26.581Z,0
2016-06-04T01:45:26.552Z,0
2016-06-04T01:46:26.555Z,0
2016-06-04T01:47:26.573Z,0
2016-06-04T01:48:26.514Z,0
2016-06-04T01:49:26.547Z,0
2016-06-04T01:50:26.472Z,0
2016-06-04T01:51:26.443Z,0
2016-06-04T01:52:26.290Z,0
2016-06-04T01:53:26.261Z,0
2016-06-04T01:54:26.404Z,0
2016-06-04T01:55:26.407Z,0
2016-06-04T01:56:26.379Z,0
2016-06-04T01:57:26.210Z,0
2016-06-04T01:58:26.369Z,0
2016-06-04T01:59:26.324Z,0
2016-06-04T02:00:26.170Z,0
2016-06-04T02:01:26.127Z,0
2016-06-04T02:02:26.285Z,0
2016-06-04T02:03:26.256Z,0
2016-06-04T02:04:26.088Z,0
2016-06-04T02:05:26.231Z,0
2016-06-04T02:06:26.217Z,0
2016-06-04T02:07:26.206Z,0
2016-06-04T02:08:26.176Z,0
2016-06-04T02:09:26.006Z,0
2016-06-04T02:10:26.151Z,0
2016-06-04T02:11:26.607Z,0
2016-06-04T02:12:26.108Z,0
2016-06-04T02:13:26.097Z,0
2016-06-04T02:14:26.067Z,0
2016-06-04T02:15:26.070Z,0
2016-06-04T02:16:26.041Z,0
2016-06-04T02:17:26.028Z,0
2016-06-04T02:18:26.016Z,0
2016-06-04T02:19:26.019Z,0
2016-06-04T02:20:26.005Z,0
2016-06-04T02:21:25.977Z,0
2016-06-04T02:22:25.792Z,0
2016-06-04T02:23:25.936Z,0
2016-06-04T02:24:25.923Z,0
2016-06-04T02:25:25.894Z,0
2016-06-04T02:26:25.834Z,0
2016-06-04T02:27:25.868Z,0
2016-06-04T02:28:25.855Z,0
2016-06-04T02:29:25.842Z,0
2016-06-04T02:30:25.829Z,0
2016-06-04T02:31:25.801Z,0
2016-06-04T02:32:25.819Z,0
2016-06-04T02:33:25.759Z,0
2016-06-04T02:34:25.746Z,0
2016-06-04T02:35:25.734Z,0
2016-06-04T02:36:25.705Z,0
2016-06-04T02:37:25.692Z,0
2016-06-04T02:38:25.694Z,0
2016-06-04T02:39:25.682Z,0
2016-06-04T02:40:25.653Z,0
2016-06-04T02:41:26.640Z,0
2016-06-04T02:42:25.612Z,0
2016-06-04T02:43:25.442Z,0
2016-06-04T02:44:25.601Z,0
2016-06-04T02:45:25.433Z,0
2016-06-04T02:46:25.560Z,0
2016-06-04T02:47:25.547Z,0
2016-06-04T02:48:25.518Z,0
2016-06-04T02:49:25.505Z,0
2016-06-04T02:50:25.492Z,0
2016-06-04T02:51:25.480Z,0
2016-06-04T02:52:25.451Z,0
2016-06-04T02:53:25.454Z,0
2016-06-04T02:54:25.425Z,0
2016-06-04T02:55:25.413Z,0
2016-06-04T02:56:26.071Z,0
2016-06-04T02:57:25.371Z,0
2016-06-04T02:58:25.342Z,0
2016-06-04T02:59:25.329Z,0
2016-06-04T03:00:25.316Z,0
2016-06-04T03:01:25.304Z,0
2016-06-04T03:02:25.290Z,0
2016-06-04T03:03:25.277Z,0
2016-06-04T03:04:25.265Z,0
2016-06-04T03:05:25.252Z,0
2016-06-04T03:06:25.223Z,0
2016-06-04T03:07:25.226Z,0
2016-06-04T03:08:25.198Z,0
2016-06-04T03:09:25.168Z,0
2016-06-04T03:10:25.171Z,0
2016-06-04T03:11:25.298Z,0
2016-06-04T03:12:25.114Z,0
2016-06-04T03:13:24.961Z,0
2016-06-04T03:14:25.104Z,0
2016-06-04T03:15:25.075Z,0
2016-06-04T03:16:25.078Z,0
2016-06-04T03:17:25.050Z,0
2016-06-04T03:18:25.036Z,0
2016-06-04T03:19:24.868Z,0
2016-06-04T03:20:25.011Z,0
2016-06-04T03:21:24.997Z,0
2016-06-04T03:22:25.267Z,0
2016-06-04T03:23:24.956Z,0
2016-06-04T03:24:24.944Z,0
2016-06-04T03:25:24.899Z,0
2016-06-04T03:26:26.043Z,0
2016-06-04T03:27:24.874Z,0
2016-06-04T03:28:24.892Z,0
2016-06-04T03:29:24.879Z,0
2016-06-04T03:30:24.850Z,0
2016-06-04T03:31:24.853Z,0
2016-06-04T03:32:24.810Z,0
2016-06-04T03:33:24.623Z,0
2016-06-04T03:34:24.596Z,0
2016-06-04T03:35:24.738Z,0
2016-06-04T03:36:24.726Z,0
2016-06-04T03:37:24.697Z,0
2016-06-04T03:38:24.684Z,0
2016-06-04T03:39:24.687Z,0
2016-06-04T03:40:24.659Z,0
2016-06-04T03:41:25.395Z,0
2016-06-04T03:42:24.632Z,0
2016-06-04T03:43:24.650Z,0
2016-06-04T03:44:24.622Z,0
2016-06-04T03:45:24.594Z,0
2016-06-04T03:46:24.597Z,0
2016-06-04T03:47:24.568Z,0
2016-06-04T03:48:24.539Z,0
2016-06-04T03:49:24.526Z,0
2016-06-04T03:50:24.513Z,0
2016-06-04T03:51:24.469Z,0
2016-06-04T03:52:24.455Z,0
2016-06-04T03:53:24.459Z,0
2016-06-04T03:54:24.446Z,0
2016-06-04T03:55:24.417Z,0
2016-06-04T03:56:24.919Z,0
2016-06-04T03:57:24.391Z,0
2016-06-04T03:58:24.379Z,0
2016-06-04T03:59:24.366Z,0
2016-06-04T04:00:24.337Z,0
2016-06-04T04:01:24.308Z,0
2016-06-04T04:02:24.140Z,0
2016-06-04T04:03:24.299Z,0
2016-06-04T04:04:24.254Z,0
2016-06-04T04:05:24.288Z,0
2016-06-04T04:06:24.244Z,0
2016-06-04T04:07:24.231Z,0
2016-06-04T04:08:24.202Z,0
2016-06-04T04:09:24.204Z,0
2016-06-04T04:10:24.192Z,0
2016-06-04T04:11:24.007Z,0
2016-06-04T04:12:24.135Z,0
2016-06-04T04:13:23.965Z,0
2016-06-04T04:14:24.093Z,0
2016-06-04T04:15:24.081Z,0
2016-06-04T04:16:24.067Z,0
2016-06-04T04:17:24.070Z,0
2016-06-04T04:18:24.058Z,0
2016-06-04T04:19:24.044Z,0
2016-06-04T04:20:24.016Z,0
2016-06-04T04:21:23.987Z,0
2016-06-04T04:22:23.975Z,0
2016-06-04T04:23:23.961Z,0
2016-06-04T04:24:23.917Z,0
2016-06-04T04:25:23.936Z,0
2016-06-04T04:26:25.673Z,0
2016-06-04T04:27:23.878Z,0
2016-06-04T04:28:23.866Z,0
2016-06-04T04:29:23.838Z,0
2016-06-04T04:30:23.824Z,0
2016-06-04T04:31:23.826Z,0
2016-06-04T04:32:23.798Z,0
2016-06-04T04:33:23.785Z,0
2016-06-04T04:34:23.788Z,0
2016-06-04T04:35:23.774Z,0
2016-06-04T04:36:23.824Z,0
2016-06-04T04:37:23.718Z,0
2016-06-04T04:38:23.689Z,0
2016-06-04T04:39:23.536Z,0
2016-06-04T04:40:23.679Z,0
2016-06-04T04:41:24.213Z,0
2016-06-04T04:42:23.637Z,0
2016-06-04T04:43:23.625Z,0
2016-06-04T04:44:23.596Z,0
2016-06-04T04:45:23.584Z,0
2016-06-04T04:46:23.570Z,0
2016-06-04T04:47:23.557Z,0
2016-06-04T04:48:23.544Z,0
2016-06-04T04:49:23.391Z,0
2016-06-04T04:50:23.519Z,0
2016-06-04T04:51:23.490Z,0
2016-06-04T04:52:23.477Z,0
2016-06-04T04:53:23.464Z,0
2016-06-04T04:54:23.436Z,0
2016-06-04T04:55:23.423Z,0
2016-06-04T04:56:23.503Z,0
2016-06-04T04:57:23.396Z,0
2016-06-04T04:58:23.384Z,0
2016-06-04T04:59:23.386Z,0
2016-06-04T05:00:23.341Z,0
2016-06-04T05:01:23.329Z,0
2016-06-04T05:02:23.332Z,0
2016-06-04T05:03:23.304Z,0
2016-06-04T05:04:23.291Z,0
2016-06-04T05:05:23.293Z,0
2016-06-04T05:06:23.249Z,0
2016-06-04T05:07:23.221Z,0
2016-06-04T05:08:23.238Z,0
2016-06-04T05:09:23.054Z,0
2016-06-04T05:10:23.026Z,0
2016-06-04T05:11:23.387Z,0
2016-06-04T05:12:23.156Z,0
2016-06-04T05:13:23.143Z,0
2016-06-04T05:14:23.130Z,0
2016-06-04T05:15:23.117Z,0
2016-06-04T05:16:23.088Z,0
2016-06-04T05:17:23.060Z,0
2016-06-04T05:18:23.047Z,0
2016-06-04T05:19:23.034Z,5
2016-06-04T05:20:23.037Z,5
2016-06-04T05:21:23.024Z,5
2016-06-04T05:22:22.995Z,5
2016-06-04T05:23:22.982Z,5
2016-06-04T05:24:22.970Z,5
2016-06-04T05:25:22.941Z,5
2016-06-04T05:26:23.319Z,5
2016-06-04T05:27:22.914Z,5
2016-06-04T05:28:22.886Z,10
2016-06-04T05:29:22.874Z,10
2016-06-04T05:30:22.891Z,10
2016-06-04T05:31:22.847Z,10
2016-06-04T05:32:22.819Z,10
2016-06-04T05:33:22.822Z,10
2016-06-04T05:34:22.793Z,15
2016-06-04T05:35:22.780Z,15
2016-06-04T05:36:22.735Z,15
2016-06-04T05:37:22.755Z,15
2016-06-04T05:38:22.726Z,15
2016-06-04T05:39:22.713Z,15
2016-06-04T05:40:22.700Z,20
2016-06-04T05:41:23.609Z,20
2016-06-04T05:42:22.659Z,20
2016-06-04T05:43:22.645Z,20
2016-06-04T05:44:22.632Z,20
2016-06-04T05:45:22.620Z,20
2016-06-04T05:46:22.606Z,25
2016-06-04T05:47:22.578Z,25
2016-06-04T05:48:22.565Z,30
2016-06-04T05:49:22.553Z,25
2016-06-04T05:50:22.633Z,25
2016-06-04T05:51:22.542Z,30
2016-06-04T05:52:22.498Z,30
2016-06-04T05:53:22.484Z,30
2016-06-04T05:54:22.456Z,35
2016-06-04T05:55:22.459Z,35
2016-06-04T05:56:23.008Z,35
2016-06-04T05:57:22.261Z,30
2016-06-04T05:58:22.405Z,35
2016-06-04T05:59:22.392Z,35
2016-06-04T06:00:22.378Z,35
2016-06-04T06:01:22.350Z,35
2016-06-04T06:02:22.337Z,35
2016-06-04T06:03:22.341Z,35
2016-06-04T06:04:22.311Z,30
2016-06-04T06:05:22.299Z,30
2016-06-04T06:06:22.269Z,30
2016-06-04T06:07:22.272Z,30
2016-06-04T06:08:22.243Z,30
2016-06-04T06:09:22.262Z,30
2016-06-04T06:10:22.218Z,30
2016-06-04T06:11:22.065Z,35
2016-06-04T06:12:22.192Z,35
2016-06-04T06:13:22.148Z,35
2016-06-04T06:14:22.151Z,35
2016-06-04T06:15:22.123Z,35
2016-06-04T06:16:22.125Z,35
2016-06-04T06:17:22.096Z,35
2016-06-04T06:18:22.099Z,35
2016-06-04T06:19:22.070Z,35
2016-06-04T06:20:22.042Z,35
2016-06-04T06:21:21.873Z,35
2016-06-04T06:22:22.016Z,35
2016-06-04T06:23:21.847Z,35
2016-06-04T06:24:21.989Z,35
2016-06-04T06:25:21.961Z,35
2016-06-04T06:26:21.949Z,35
2016-06-04T06:27:21.920Z,35
2016-06-04T06:28:21.922Z,35
2016-06-04T06:29:21.972Z,35
2016-06-04T06:30:21.897Z,40
2016-06-04T06:31:21.868Z,40
2016-06-04T06:32:21.902Z,40
2016-06-04T06:33:21.686Z,40
2016-06-04T06:34:21.830Z,40
2016-06-04T06:35:21.801Z,40
2016-06-04T06:36:21.788Z,40
2016-06-04T06:37:21.775Z,40
2016-06-04T06:38:21.762Z,40
2016-06-04T06:39:21.733Z,40
2016-06-04T06:40:21.752Z,40
2016-06-04T06:41:21.879Z,40
2016-06-04T06:42:21.695Z,40
2016-06-04T06:43:21.666Z,40
2016-06-04T06:44:21.668Z,40
2016-06-04T06:45:21.640Z,40
2016-06-04T06:46:21.627Z,40
2016-06-04T06:47:21.615Z,45
2016-06-04T06:48:21.632Z,45
2016-06-04T06:49:21.589Z,45
2016-06-04T06:50:21.575Z,45
2016-06-04T06:51:21.548Z,45
2016-06-04T06:52:21.518Z,45
2016-06-04T06:53:21.521Z,45
2016-06-04T06:54:21.492Z,45
2016-06-04T06:55:21.495Z,45
2016-06-04T06:56:21.936Z,45
2016-06-04T06:57:21.453Z,45
2016-06-04T06:58:21.425Z,45
2016-06-04T06:59:21.428Z,50
2016-06-04T07:00:21.415Z,50
2016-06-04T07:01:21.387Z,50
2016-06-04T07:02:21.389Z,50
2016-06-04T07:03:21.377Z,50
2016-06-04T07:04:21.175Z,50
2016-06-04T07:05:21.163Z,50
2016-06-04T07:06:21.322Z,50
2016-06-04T07:07:21.278Z,50
2016-06-04T07:08:21.390Z,50
2016-06-04T07:09:21.095Z,50
2016-06-04T07:10:21.270Z,55
2016-06-04T07:11:22.007Z,55
2016-06-04T07:12:21.212Z,55
2016-06-04T07:13:21.199Z,55
2016-06-04T07:14:21.203Z,55
2016-06-04T07:15:21.159Z,55
2016-06-04T07:16:21.145Z,55
2016-06-04T07:17:21.117Z,60
2016-06-04T07:18:21.104Z,60
2016-06-04T07:19:21.091Z,60
2016-06-04T07:20:21.078Z,60
2016-06-04T07:21:21.081Z,60
2016-06-04T07:22:20.896Z,60
2016-06-04T07:23:21.024Z,60
2016-06-04T07:24:20.870Z,60
2016-06-04T07:25:20.997Z,65
2016-06-04T07:26:21.376Z,65
2016-06-04T07:27:20.972Z,65
2016-06-04T07:28:20.803Z,65
2016-06-04T07:29:20.931Z,65
2016-06-04T07:30:20.964Z,65
2016-06-04T07:31:20.748Z,65
2016-06-04T07:32:20.891Z,55
2016-06-04T07:33:20.863Z,70
2016-06-04T07:34:20.866Z,65
2016-06-04T07:35:20.838Z,70
2016-06-04T07:36:20.668Z,70
2016-06-04T07:37:20.796Z,65
2016-06-04T07:38:20.783Z,80
2016-06-04T07:39:20.770Z,80
2016-06-04T07:40:20.601Z,65
2016-06-04T07:41:21.025Z,75
2016-06-04T07:42:20.732Z,70
2016-06-04T07:43:20.703Z,75
2016-06-04T07:44:20.549Z,85
2016-06-04T07:45:20.676Z,85
2016-06-04T07:46:20.648Z,75
2016-06-04T07:47:20.666Z,75
2016-06-04T07:48:20.638Z,85
2016-06-04T07:49:20.625Z,95
2016-06-04T07:50:20.596Z,105
2016-06-04T07:51:20.599Z,125
2016-06-04T07:52:20.570Z,130
2016-06-04T07:53:20.542Z,125
2016-06-04T07:54:20.684Z,125
2016-06-04T07:55:20.517Z,110
2016-06-04T07:56:21.659Z,105
2016-06-04T07:57:20.350Z,95
2016-06-04T07:58:20.462Z,95
2016-06-04T07:59:20.464Z,100
2016-06-04T08:00:20.467Z,100
2016-06-04T08:01:20.267Z,100
2016-06-04T08:02:20.410Z,100
2016-06-04T08:03:20.241Z,100
2016-06-04T08:04:20.369Z,100
2016-06-04T08:05:20.214Z,90
2016-06-04T08:06:20.186Z,80
2016-06-04T08:07:21.205Z,75
2016-06-04T08:08:20.161Z,75
2016-06-04T08:09:20.304Z,75
2016-06-04T08:10:20.275Z,85
2016-06-04T08:11:20.121Z,90
2016-06-04T08:12:21.515Z,85
2016-06-04T08:13:20.252Z,75
2016-06-04T08:14:20.223Z,75
2016-06-04T08:15:20.211Z,80
2016-06-04T08:16:20.182Z,85
2016-06-04T08:17:20.341Z,105
2016-06-04T08:18:20.171Z,105
2016-06-04T08:19:20.143Z,95
2016-06-04T08:20:20.146Z,105
2016-06-04T08:21:20.101Z,125
2016-06-04T08:22:20.104Z,130
2016-06-04T08:23:19.919Z,125
2016-06-04T08:24:20.063Z,130
2016-06-04T08:25:20.050Z,130
2016-06-04T08:26:20.053Z,125
2016-06-04T08:27:20.024Z,105
2016-06-04T08:28:19.995Z,115
2016-06-04T08:29:19.998Z,110
2016-06-04T08:30:19.969Z,105
2016-06-04T08:31:19.800Z,95
2016-06-04T08:32:19.944Z,85
2016-06-04T08:33:19.914Z,85
2016-06-04T08:34:19.918Z,105
2016-06-04T08:35:19.889Z,105
2016-06-04T08:36:25.313Z,110
2016-06-04T08:37:19.910Z,110
2016-06-04T08:38:19.882Z,105
2016-06-04T08:39:21.915Z,105
2016-06-04T08:40:19.808Z,105
2016-06-04T08:41:19.796Z,100
2016-06-04T08:42:20.876Z,130
2016-06-04T08:43:19.645Z,145
2016-06-04T08:44:19.758Z,120
2016-06-04T08:45:19.744Z,115
2016-06-04T08:46:19.747Z,110
2016-06-04T08:47:19.702Z,110
2016-06-04T08:48:19.690Z,145
2016-06-04T08:49:19.677Z,140
2016-06-04T08:50:19.664Z,140
2016-06-04T08:51:19.651Z,155
2016-06-04T08:52:19.638Z,185
2016-06-04T08:53:19.609Z,210
2016-06-04T08:54:19.596Z,200
2016-06-04T08:55:19.584Z,175
2016-06-04T08:56:19.586Z,130
2016-06-04T08:57:19.573Z,125
2016-06-04T08:58:19.857Z,150
2016-06-04T08:59:19.766Z,175
2016-06-04T09:00:19.534Z,190
2016-06-04T09:01:19.506Z,215
2016-06-04T09:02:19.493Z,245
2016-06-04T09:03:19.495Z,235
2016-06-04T09:04:19.452Z,210
2016-06-04T09:05:19.439Z,235
2016-06-04T09:06:19.426Z,260
2016-06-04T09:07:19.428Z,275
2016-06-04T09:08:19.400Z,285
2016-06-04T09:09:19.403Z,265
2016-06-04T09:10:19.374Z,210
2016-06-04T09:11:19.377Z,205
2016-06-04T09:12:20.161Z,180
2016-06-04T09:13:19.616Z,175
2016-06-04T09:14:19.166Z,185
2016-06-04T09:15:19.152Z,210
2016-06-04T09:16:19.281Z,230
2016-06-04T09:17:19.127Z,230
2016-06-04T09:18:19.114Z,200
2016-06-04T09:19:19.243Z,170
2016-06-04T09:20:19.229Z,150
2016-06-04T09:21:19.216Z,160
2016-06-04T09:22:19.204Z,215
2016-06-04T09:23:19.190Z,255
2016-06-04T09:24:19.162Z,275
2016-06-04T09:25:19.149Z,275
2016-06-04T09:26:19.136Z,280
2016-06-04T09:27:19.154Z,235
2016-06-04T09:28:19.703Z,200
2016-06-04T09:29:19.707Z,190
2016-06-04T09:30:18.943Z,160
2016-06-04T09:31:19.070Z,130
2016-06-04T09:32:18.902Z,130
2016-06-04T09:33:19.031Z,135
2016-06-04T09:34:19.033Z,130
2016-06-04T09:35:19.020Z,140
2016-06-04T09:36:19.006Z,160
2016-06-04T09:37:18.994Z,160
2016-06-04T09:38:18.965Z,170
2016-06-04T09:39:18.827Z,200
2016-06-04T09:40:18.955Z,210
2016-06-04T09:41:18.942Z,210
2016-06-04T09:42:18.930Z,230
2016-06-04T09:43:19.697Z,220
2016-06-04T09:44:19.278Z,215
2016-06-04T09:45:18.890Z,215
2016-06-04T09:46:18.877Z,230
2016-06-04T09:47:18.833Z,265
2016-06-04T09:48:18.835Z,270
2016-06-04T09:49:18.838Z,255
2016-06-04T09:50:18.826Z,260
2016-06-04T09:51:18.797Z,265
2016-06-04T09:52:18.784Z,285
2016-06-04T09:53:18.770Z,285
2016-06-04T09:54:18.743Z,260
2016-06-04T09:55:18.589Z,245
2016-06-04T09:56:18.717Z,245
2016-06-04T09:57:18.562Z,210
2016-06-04T09:58:18.691Z,195
2016-06-04T09:59:18.553Z,225
2016-06-04T10:00:18.665Z,230
2016-06-04T10:01:21.667Z,225
2016-06-04T10:02:18.639Z,215
2016-06-04T10:03:18.486Z,210
2016-06-04T10:04:18.629Z,210
2016-06-04T10:05:18.461Z,210
2016-06-04T10:06:20.695Z,230
2016-06-04T10:07:18.662Z,265
2016-06-04T10:08:18.662Z,245
2016-06-04T10:09:18.692Z,270
2016-06-04T10:10:18.680Z,230
2016-06-04T10:11:18.849Z,255
2016-06-04T10:12:18.675Z,280
2016-06-04T10:13:18.703Z,320
2016-06-04T10:14:18.903Z,310
2016-06-04T10:15:18.662Z,305
2016-06-04T10:16:20.793Z,280
2016-06-04T10:17:18.641Z,235
2016-06-04T10:18:18.679Z,215
2016-06-04T10:19:18.498Z,195
2016-06-04T10:20:18.644Z,190
2016-06-04T10:21:18.632Z,195
2016-06-04T10:22:18.449Z,225
2016-06-04T10:23:18.609Z,245
2016-06-04T10:24:18.567Z,245
2016-06-04T10:25:18.554Z,245
2016-06-04T10:26:18.542Z,275
2016-06-04T10:27:18.530Z,325
2016-06-04T10:28:20.329Z,355
2016-06-04T10:29:18.833Z,370
2016-06-04T10:30:18.476Z,380
2016-06-04T10:31:18.479Z,350
2016-06-04T10:32:18.466Z,325
2016-06-04T10:33:18.437Z,345
2016-06-04T10:34:18.440Z,365
2016-06-04T10:35:18.412Z,405
2016-06-04T10:36:18.414Z,380
2016-06-04T10:37:18.385Z,350
2016-06-04T10:38:18.373Z,330
2016-06-04T10:39:18.360Z,335
2016-06-04T10:40:18.346Z,460
2016-06-04T10:41:18.334Z,410
2016-06-04T10:42:18.337Z,410
2016-06-04T10:43:22.809Z,440
2016-06-04T10:44:18.686Z,510
2016-06-04T10:45:18.282Z,390
2016-06-04T10:46:18.269Z,375
2016-06-04T10:47:18.288Z,360
2016-06-04T10:48:18.243Z,360
2016-06-04T10:49:18.230Z,415
2016-06-04T10:50:18.061Z,425
2016-06-04T10:51:18.205Z,405
2016-06-04T10:52:18.192Z,365
2016-06-04T10:53:18.178Z,390
2016-06-04T10:54:18.181Z,400
2016-06-04T10:55:18.152Z,405
2016-06-04T10:56:17.983Z,375
2016-06-04T10:57:18.439Z,420
2016-06-04T10:58:18.551Z,415
2016-06-04T10:59:18.117Z,320
2016-06-04T11:00:18.088Z,360
2016-06-04T11:01:18.075Z,325
2016-06-04T11:02:18.063Z,380
2016-06-04T11:03:18.066Z,345
2016-06-04T11:04:18.068Z,280
2016-06-04T11:05:18.039Z,205
2016-06-04T11:06:18.088Z,210
2016-06-04T11:07:18.013Z,205
2016-06-04T11:08:18.001Z,205
2016-06-04T11:09:17.971Z,205
2016-06-04T11:10:17.959Z,220
2016-06-04T11:11:17.945Z,225
2016-06-04T11:12:17.949Z,205
2016-06-04T11:13:19.154Z,195
2016-06-04T11:14:18.204Z,190
2016-06-04T11:15:17.895Z,190
2016-06-04T11:16:17.898Z,195
2016-06-04T11:17:17.900Z,195
2016-06-04T11:18:17.871Z,205
2016-06-04T11:19:17.859Z,225
2016-06-04T11:20:17.876Z,230
2016-06-04T11:21:17.832Z,235
2016-06-04T11:22:18.006Z,245
2016-06-04T11:23:17.806Z,280
2016-06-04T11:24:17.794Z,380
2016-06-04T11:25:17.468Z,540
2016-06-04T11:26:17.767Z,575
2016-06-04T11:27:18.020Z,630
2016-06-04T11:28:18.476Z,670
2016-06-04T11:29:17.729Z,1035
2016-06-04T11:30:17.716Z,630
2016-06-04T11:31:17.734Z,600
2016-06-04T11:32:17.705Z,1405
2016-06-04T11:33:17.677Z,555
2016-06-04T11:34:17.664Z,405
2016-06-04T11:35:17.683Z,340
2016-06-04T11:36:17.654Z,930
2016-06-04T11:37:17.656Z,1345
2016-06-04T11:38:17.644Z,2245
2016-06-04T11:39:17.630Z,2265
2016-06-04T11:40:17.618Z,2305
2016-06-04T11:41:18.089Z,2285
2016-06-04T11:42:17.623Z,2250
2016-06-04T11:43:17.609Z,2415
2016-06-04T11:44:17.582Z,2540
2016-06-04T11:45:17.568Z,1895
2016-06-04T11:46:17.586Z,1020
2016-06-04T11:47:17.559Z,1040
2016-06-04T11:48:17.640Z,2010
2016-06-04T11:49:17.564Z,1175
2016-06-04T11:50:17.567Z,2490
2016-06-04T11:51:17.242Z,2245
2016-06-04T11:52:17.540Z,2100
2016-06-04T11:53:17.543Z,2310
2016-06-04T11:54:17.375Z,1905
2016-06-04T11:55:17.533Z,2285
2016-06-04T11:56:17.441Z,2185
2016-06-04T11:57:18.445Z,2390
2016-06-04T11:58:17.494Z,2435
2016-06-04T11:59:17.341Z,2410
2016-06-04T12:00:17.500Z,2400
2016-06-04T12:01:17.502Z,2250
2016-06-04T12:02:17.505Z,2335
2016-06-04T12:03:17.491Z,2375
2016-06-04T12:04:17.495Z,2455
2016-06-04T12:05:17.482Z,2445
2016-06-04T12:06:17.485Z,2480
2016-06-04T12:07:17.471Z,2085
2016-06-04T12:08:17.663Z,1585
2016-06-04T12:09:17.321Z,1310
2016-06-04T12:10:17.308Z,910
2016-06-04T12:11:17.482Z,685
2016-06-04T12:12:17.829Z,610
2016-06-04T12:13:17.332Z,510
2016-06-04T12:14:17.459Z,835
2016-06-04T12:15:17.462Z,755
2016-06-04T12:16:17.434Z,890
2016-06-04T12:17:17.436Z,660
2016-06-04T12:18:17.423Z,650
2016-06-04T12:19:17.426Z,860
2016-06-04T12:20:17.429Z,700
2016-06-04T12:21:17.431Z,735
2016-06-04T12:22:17.418Z,650
2016-06-04T12:23:17.436Z,640
2016-06-04T12:24:17.408Z,570
2016-06-04T12:25:17.395Z,575
2016-06-04T12:26:17.397Z,655
2016-06-04T12:27:17.385Z,760
2016-06-04T12:28:17.528Z,645
2016-06-04T12:29:17.781Z,780
2016-06-04T12:30:17.377Z,635
2016-06-04T12:31:17.349Z,645
2016-06-04T12:32:17.367Z,685
2016-06-04T12:33:17.354Z,810
2016-06-04T12:34:17.341Z,765
2016-06-04T12:35:17.360Z,700
2016-06-04T12:36:17.347Z,680
2016-06-04T12:37:17.333Z,620
2016-06-04T12:38:17.164Z,665
2016-06-04T12:39:17.324Z,805
2016-06-04T12:40:17.341Z,505
2016-06-04T12:41:17.297Z,485
2016-06-04T12:42:17.550Z,470
2016-06-04T12:43:17.568Z,445
2016-06-04T12:44:17.290Z,410
2016-06-04T12:45:17.292Z,425
2016-06-04T12:46:17.296Z,460
2016-06-04T12:47:17.267Z,500
2016-06-04T12:48:17.254Z,510
2016-06-04T12:49:17.240Z,450
2016-06-04T12:50:17.478Z,405
2016-06-04T12:51:17.246Z,370
2016-06-04T12:52:17.217Z,345
2016-06-04T12:53:17.204Z,315
2016-06-04T12:54:17.207Z,285
2016-06-04T12:55:17.195Z,245
2016-06-04T12:56:17.306Z,225
2016-06-04T12:57:17.809Z,230
2016-06-04T12:58:17.172Z,265
2016-06-04T12:59:17.174Z,345
2016-06-04T13:00:17.145Z,480
2016-06-04T13:01:17.133Z,1050
2016-06-04T13:02:18.448Z,580
2016-06-04T13:03:17.122Z,505
2016-06-04T13:04:16.953Z,470
2016-06-04T13:05:17.097Z,450
2016-06-04T13:06:17.083Z,455
2016-06-04T13:07:19.149Z,450
2016-06-04T13:08:17.057Z,425
2016-06-04T13:09:17.060Z,400
2016-06-04T13:10:17.047Z,365
2016-06-04T13:11:17.035Z,330
2016-06-04T13:12:19.819Z,300
2016-06-04T13:13:16.993Z,290
2016-06-04T13:14:17.010Z,305
2016-06-04T13:15:16.843Z,355
2016-06-04T13:16:16.985Z,410
2016-06-04T13:17:17.894Z,390
2016-06-04T13:18:16.944Z,390
2016-06-04T13:19:16.962Z,405
2016-06-04T13:20:16.917Z,460
2016-06-04T13:21:16.921Z,755
2016-06-04T13:22:19.361Z,680
2016-06-04T13:23:16.895Z,895
2016-06-04T13:24:16.897Z,810
2016-06-04T13:25:16.881Z,790
2016-06-04T13:26:16.557Z,1210
2016-06-04T13:27:17.796Z,645
2016-06-04T13:28:16.843Z,605
2016-06-04T13:29:16.814Z,1165
2016-06-04T13:30:16.817Z,750
2016-06-04T13:31:16.804Z,650
2016-06-04T13:32:17.229Z,645
2016-06-04T13:33:16.794Z,585
2016-06-04T13:34:16.766Z,525
2016-06-04T13:35:16.753Z,520
2016-06-04T13:36:16.739Z,495
2016-06-04T13:37:19.370Z,515
2016-06-04T13:38:16.730Z,720
2016-06-04T13:39:16.717Z,635
2016-06-04T13:40:16.703Z,1820
2016-06-04T13:41:16.705Z,2835
2016-06-04T13:42:18.336Z,2655
2016-06-04T13:43:17.086Z,1715
2016-06-04T13:44:18.027Z,980
2016-06-04T13:45:16.655Z,2800
2016-06-04T13:46:16.641Z,2835
2016-06-04T13:47:19.022Z,1465
2016-06-04T13:48:16.632Z,2860
2016-06-04T13:49:16.618Z,635
2016-06-04T13:50:16.621Z,2930
2016-06-04T13:51:16.608Z,2895
2016-06-04T13:52:19.848Z,645
2016-06-04T13:53:16.598Z,500
2016-06-04T13:54:16.585Z,1045
2016-06-04T13:55:16.431Z,2430
2016-06-04T13:56:16.418Z,630
2016-06-04T13:57:18.687Z,670
2016-06-04T13:58:16.909Z,755
2016-06-04T13:59:16.583Z,2085
2016-06-04T14:00:16.539Z,1415
2016-06-04T14:01:16.525Z,2065
2016-06-04T14:02:18.544Z,2405
2016-06-04T14:03:16.547Z,2420
2016-06-04T14:04:16.518Z,2405
2016-06-04T14:05:16.520Z,2530
2016-06-04T14:06:16.508Z,630
2016-06-04T14:07:16.526Z,2065
2016-06-04T14:08:16.514Z,1195
2016-06-04T14:09:16.500Z,2505
2016-06-04T14:10:16.488Z,2410
2016-06-04T14:11:17.099Z,2350
2016-06-04T14:12:18.633Z,2415